sensor_id;sensor_type;location;lat;lon;timestamp;pressure;altitude;pressure_sealevel;temperature;humidity
81547;BME280;71078;48.358;10.960;2023-09-07T00:00:45;96408.00;;;19.73;46.04
81547;BME280;71078;48.358;10.960;2023-09-07T00:03:06;96402.63;;;19.47;46.82
81547;BME280;71078;48.358;10.960;2023-09-07T00:05:27;96404.13;;;19.42;47.40
81547;BME280;71078;48.358;10.960;2023-09-07T00:07:48;96410.72;;;19.39;47.17
81547;BME280;71078;48.358;10.960;2023-09-07T00:10:09;96409.91;;;19.27;47.75
81547;BME280;71078;48.358;10.960;2023-09-07T00:12:30;96406.84;;;19.20;47.94
81547;BME280;71078;48.358;10.960;2023-09-07T00:14:52;96411.38;;;19.17;47.99
81547;BME280;71078;48.358;10.960;2023-09-07T00:17:13;96410.13;;;19.18;47.87
81547;BME280;71078;48.358;10.960;2023-09-07T00:19:34;96399.22;;;19.09;48.21
81547;BME280;71078;48.358;10.960;2023-09-07T00:21:57;96401.75;;;19.13;48.07
81547;BME280;71078;48.358;10.960;2023-09-07T00:24:18;96410.38;;;19.20;48.04
81547;BME280;71078;48.358;10.960;2023-09-07T00:26:39;96400.78;;;19.21;47.76
81547;BME280;71078;48.358;10.960;2023-09-07T00:28:59;96395.44;;;19.18;47.76
81547;BME280;71078;48.358;10.960;2023-09-07T00:31:20;96396.47;;;19.26;48.32
81547;BME280;71078;48.358;10.960;2023-09-07T00:33:41;96398.53;;;19.31;47.73
81547;BME280;71078;48.358;10.960;2023-09-07T00:36:02;96399.53;;;19.28;47.90
81547;BME280;71078;48.358;10.960;2023-09-07T00:38:23;96391.69;;;19.32;47.93
81547;BME280;71078;48.358;10.960;2023-09-07T00:40:44;96385.06;;;19.24;48.03
81547;BME280;71078;48.358;10.960;2023-09-07T00:43:08;96392.91;;;19.20;48.16
81547;BME280;71078;48.358;10.960;2023-09-07T00:45:28;96389.38;;;19.19;47.81
81547;BME280;71078;48.358;10.960;2023-09-07T00:47:49;96390.88;;;19.15;48.48
81547;BME280;71078;48.358;10.960;2023-09-07T00:50:10;96394.69;;;19.17;48.32
81547;BME280;71078;48.358;10.960;2023-09-07T00:52:34;96393.41;;;19.18;48.01
81547;BME280;71078;48.358;10.960;2023-09-07T00:54:56;96386.59;;;19.19;48.15
81547;BME280;71078;48.358;10.960;2023-09-07T00:57:17;96387.06;;;19.12;48.37
81547;BME280;71078;48.358;10.960;2023-09-07T00:59:38;96387.28;;;19.03;48.10
81547;BME280;71078;48.358;10.960;2023-09-07T01:01:59;96380.47;;;19.04;48.43
81547;BME280;71078;48.358;10.960;2023-09-07T01:04:19;96383.25;;;19.10;48.43
81547;BME280;71078;48.358;10.960;2023-09-07T01:06:45;96392.38;;;19.10;48.41
81547;BME280;71078;48.358;10.960;2023-09-07T01:09:14;96387.03;;;19.07;48.42
81547;BME280;71078;48.358;10.960;2023-09-07T01:11:36;96378.94;;;19.09;48.21
81547;BME280;71078;48.358;10.960;2023-09-07T01:13:58;96382.75;;;19.06;48.92
81547;BME280;71078;48.358;10.960;2023-09-07T01:16:20;96383.94;;;18.99;48.62
81547;BME280;71078;48.358;10.960;2023-09-07T01:18:42;96378.63;;;19.01;48.36
81547;BME280;71078;48.358;10.960;2023-09-07T01:21:07;96383.41;;;18.89;48.59
81547;BME280;71078;48.358;10.960;2023-09-07T01:23:29;96382.13;;;18.90;48.61
81547;BME280;71078;48.358;10.960;2023-09-07T01:25:50;96379.34;;;18.85;48.66
81547;BME280;71078;48.358;10.960;2023-09-07T01:28:11;96379.00;;;18.66;49.17
81547;BME280;71078;48.358;10.960;2023-09-07T01:30:35;96380.97;;;18.60;48.89
81547;BME280;71078;48.358;10.960;2023-09-07T01:32:57;96390.56;;;18.53;49.60
81547;BME280;71078;48.358;10.960;2023-09-07T01:35:18;96382.69;;;18.52;49.59
81547;BME280;71078;48.358;10.960;2023-09-07T01:37:42;96390.56;;;18.53;49.43
81547;BME280;71078;48.358;10.960;2023-09-07T01:40:03;96383.19;;;18.50;49.65
81547;BME280;71078;48.358;10.960;2023-09-07T01:42:27;96386.25;;;18.52;49.35
81547;BME280;71078;48.358;10.960;2023-09-07T01:44:48;96378.94;;;18.55;49.21
81547;BME280;71078;48.358;10.960;2023-09-07T01:47:09;96386.47;;;18.49;49.14
81547;BME280;71078;48.358;10.960;2023-09-07T01:49:30;96393.34;;;18.53;49.20
81547;BME280;71078;48.358;10.960;2023-09-07T01:51:51;96390.78;;;18.50;49.27
81547;BME280;71078;48.358;10.960;2023-09-07T01:54:13;96380.34;;;18.39;49.41
81547;BME280;71078;48.358;10.960;2023-09-07T01:56:33;96378.59;;;18.42;49.63
81547;BME280;71078;48.358;10.960;2023-09-07T01:58:54;96373.91;;;18.22;49.43
81547;BME280;71078;48.358;10.960;2023-09-07T02:01:24;96376.72;;;18.27;49.49
81547;BME280;71078;48.358;10.960;2023-09-07T02:03:45;96383.84;;;18.34;49.14
81547;BME280;71078;48.358;10.960;2023-09-07T02:06:05;96376.31;;;18.40;49.11
81547;BME280;71078;48.358;10.960;2023-09-07T02:08:26;96375.53;;;18.40;49.07
81547;BME280;71078;48.358;10.960;2023-09-07T02:10:47;96378.84;;;18.44;49.11
81547;BME280;71078;48.358;10.960;2023-09-07T02:13:08;96387.91;;;18.33;49.40
81547;BME280;71078;48.358;10.960;2023-09-07T02:15:28;96382.25;;;18.22;49.38
81547;BME280;71078;48.358;10.960;2023-09-07T02:17:49;96392.53;;;18.16;49.77
81547;BME280;71078;48.358;10.960;2023-09-07T02:20:11;96385.72;;;18.17;49.77
81547;BME280;71078;48.358;10.960;2023-09-07T02:22:32;96387.47;;;18.14;49.91
81547;BME280;71078;48.358;10.960;2023-09-07T02:24:52;96383.66;;;18.12;49.51
81547;BME280;71078;48.358;10.960;2023-09-07T02:27:13;96376.75;;;18.01;49.91
81547;BME280;71078;48.358;10.960;2023-09-07T02:29:34;96389.75;;;17.79;50.14
81547;BME280;71078;48.358;10.960;2023-09-07T02:31:54;96391.22;;;17.74;50.17
81547;BME280;71078;48.358;10.960;2023-09-07T02:34:15;96384.56;;;17.66;50.42
81547;BME280;71078;48.358;10.960;2023-09-07T02:36:36;96375.91;;;17.58;51.00
81547;BME280;71078;48.358;10.960;2023-09-07T02:38:56;96393.03;;;17.77;51.23
81547;BME280;71078;48.358;10.960;2023-09-07T02:41:17;96384.75;;;17.88;51.42
81547;BME280;71078;48.358;10.960;2023-09-07T02:43:37;96386.09;;;17.98;50.77
81547;BME280;71078;48.358;10.960;2023-09-07T02:45:58;96390.50;;;18.11;50.13
81547;BME280;71078;48.358;10.960;2023-09-07T02:48:19;96390.59;;;18.22;49.89
81547;BME280;71078;48.358;10.960;2023-09-07T02:50:39;96387.31;;;18.23;49.72
81547;BME280;71078;48.358;10.960;2023-09-07T02:53:01;96386.50;;;18.17;49.92
81547;BME280;71078;48.358;10.960;2023-09-07T02:55:23;96394.34;;;18.19;49.78
81547;BME280;71078;48.358;10.960;2023-09-07T02:57:43;96395.88;;;18.20;50.02
81547;BME280;71078;48.358;10.960;2023-09-07T03:00:04;96398.78;;;18.05;50.11
81547;BME280;71078;48.358;10.960;2023-09-07T03:02:29;96398.25;;;18.01;50.13
81547;BME280;71078;48.358;10.960;2023-09-07T03:04:54;96403.84;;;18.07;50.58
81547;BME280;71078;48.358;10.960;2023-09-07T03:07:15;96398.03;;;18.05;49.71
81547;BME280;71078;48.358;10.960;2023-09-07T03:09:36;96400.13;;;18.15;50.33
81547;BME280;71078;48.358;10.960;2023-09-07T03:11:56;96398.09;;;18.16;50.17
81547;BME280;71078;48.358;10.960;2023-09-07T03:14:17;96399.13;;;18.18;49.80
81547;BME280;71078;48.358;10.960;2023-09-07T03:16:37;96393.72;;;18.03;49.48
81547;BME280;71078;48.358;10.960;2023-09-07T03:18:59;96403.44;;;17.88;50.42
81547;BME280;71078;48.358;10.960;2023-09-07T03:21:20;96406.50;;;17.90;50.46
81547;BME280;71078;48.358;10.960;2023-09-07T03:23:41;96404.75;;;17.92;50.34
81547;BME280;71078;48.358;10.960;2023-09-07T03:26:04;96409.31;;;17.95;50.19
81547;BME280;71078;48.358;10.960;2023-09-07T03:28:25;96400.75;;;17.99;50.02
81547;BME280;71078;48.358;10.960;2023-09-07T03:30:46;96397.72;;;17.97;50.31
81547;BME280;71078;48.358;10.960;2023-09-07T03:33:07;96407.78;;;17.94;50.14
81547;BME280;71078;48.358;10.960;2023-09-07T03:35:27;96401.75;;;17.96;50.19
81547;BME280;71078;48.358;10.960;2023-09-07T03:37:48;96403.97;;;17.92;49.60
81547;BME280;71078;48.358;10.960;2023-09-07T03:40:09;96402.19;;;17.89;50.25
81547;BME280;71078;48.358;10.960;2023-09-07T03:42:30;96406.66;;;17.81;50.79
81547;BME280;71078;48.358;10.960;2023-09-07T03:44:53;96402.13;;;17.78;50.39
81547;BME280;71078;48.358;10.960;2023-09-07T03:47:14;96402.50;;;17.65;50.24
81547;BME280;71078;48.358;10.960;2023-09-07T03:49:35;96394.88;;;17.60;50.96
81547;BME280;71078;48.358;10.960;2023-09-07T03:51:56;96396.94;;;17.65;51.10
81547;BME280;71078;48.358;10.960;2023-09-07T03:54:16;96389.59;;;17.62;50.67
81547;BME280;71078;48.358;10.960;2023-09-07T03:56:37;96396.47;;;17.66;50.16
81547;BME280;71078;48.358;10.960;2023-09-07T03:58:57;96406.00;;;17.60;50.68
81547;BME280;71078;48.358;10.960;2023-09-07T04:01:18;96399.56;;;17.48;50.35
81547;BME280;71078;48.358;10.960;2023-09-07T04:03:39;96410.03;;;17.59;50.55
81547;BME280;71078;48.358;10.960;2023-09-07T04:06:01;96406.00;;;17.60;50.35
81547;BME280;71078;48.358;10.960;2023-09-07T04:08:22;96408.44;;;17.52;50.41
81547;BME280;71078;48.358;10.960;2023-09-07T04:10:42;96410.19;;;17.50;50.48
81547;BME280;71078;48.358;10.960;2023-09-07T04:13:03;96404.91;;;17.52;50.43
81547;BME280;71078;48.358;10.960;2023-09-07T04:15:24;96404.03;;;17.66;50.33
81547;BME280;71078;48.358;10.960;2023-09-07T04:17:46;96402.50;;;17.65;49.71
81547;BME280;71078;48.358;10.960;2023-09-07T04:20:07;96402.50;;;17.65;49.80
81547;BME280;71078;48.358;10.960;2023-09-07T04:22:29;96390.34;;;17.62;49.88
81547;BME280;71078;48.358;10.960;2023-09-07T04:24:49;96394.75;;;17.75;49.71
81547;BME280;71078;48.358;10.960;2023-09-07T04:27:11;96403.03;;;17.69;49.72
81547;BME280;71078;48.358;10.960;2023-09-07T04:29:31;96395.75;;;17.72;50.21
81547;BME280;71078;48.358;10.960;2023-09-07T04:31:52;96395.59;;;17.55;49.38
81547;BME280;71078;48.358;10.960;2023-09-07T04:34:13;96404.78;;;17.41;49.51
81547;BME280;71078;48.358;10.960;2023-09-07T04:36:34;96394.00;;;17.28;49.64
81547;BME280;71078;48.358;10.960;2023-09-07T04:38:54;96388.66;;;17.24;50.45
81547;BME280;71078;48.358;10.960;2023-09-07T04:41:15;96393.78;;;17.31;50.36
81547;BME280;71078;48.358;10.960;2023-09-07T04:43:37;96392.97;;;17.46;50.34
81547;BME280;71078;48.358;10.960;2023-09-07T04:45:59;96405.94;;;17.54;50.04
81547;BME280;71078;48.358;10.960;2023-09-07T04:48:20;96399.78;;;17.45;50.13
81547;BME280;71078;48.358;10.960;2023-09-07T04:50:41;96403.09;;;17.28;50.82
81547;BME280;71078;48.358;10.960;2023-09-07T04:53:02;96407.28;;;17.39;50.47
81547;BME280;71078;48.358;10.960;2023-09-07T04:55:23;96398.47;;;17.40;50.50
81547;BME280;71078;48.358;10.960;2023-09-07T04:57:43;96387.22;;;17.29;50.45
81547;BME280;71078;48.358;10.960;2023-09-07T05:00:06;96404.34;;;17.48;50.42
81547;BME280;71078;48.358;10.960;2023-09-07T05:02:27;96401.34;;;17.51;49.98
81547;BME280;71078;48.358;10.960;2023-09-07T05:04:48;96403.09;;;17.49;49.99
81547;BME280;71078;48.358;10.960;2023-09-07T05:07:11;96396.19;;;17.39;49.94
81547;BME280;71078;48.358;10.960;2023-09-07T05:09:31;96386.88;;;17.21;49.86
81547;BME280;71078;48.358;10.960;2023-09-07T05:11:53;96409.75;;;17.36;50.19
81547;BME280;71078;48.358;10.960;2023-09-07T05:14:14;96416.06;;;17.37;49.92
81547;BME280;71078;48.358;10.960;2023-09-07T05:16:34;96415.94;;;17.46;50.45
81547;BME280;71078;48.358;10.960;2023-09-07T05:18:55;96416.44;;;17.45;49.81
81547;BME280;71078;48.358;10.960;2023-09-07T05:21:16;96417.19;;;17.45;49.93
81547;BME280;71078;48.358;10.960;2023-09-07T05:23:36;96422.28;;;17.47;49.83
81547;BME280;71078;48.358;10.960;2023-09-07T05:25:57;96428.03;;;17.43;50.02
81547;BME280;71078;48.358;10.960;2023-09-07T05:28:18;96427.59;;;17.30;50.37
81547;BME280;71078;48.358;10.960;2023-09-07T05:30:39;96430.53;;;17.21;50.38
81547;BME280;71078;48.358;10.960;2023-09-07T05:33:00;96437.19;;;17.29;51.20
81547;BME280;71078;48.358;10.960;2023-09-07T05:35:20;96437.19;;;17.29;50.97
81547;BME280;71078;48.358;10.960;2023-09-07T05:37:41;96428.44;;;17.36;51.34
81547;BME280;71078;48.358;10.960;2023-09-07T05:40:01;96431.78;;;17.40;51.25
81547;BME280;71078;48.358;10.960;2023-09-07T05:42:24;96435.25;;;17.55;50.78
81547;BME280;71078;48.358;10.960;2023-09-07T05:44:46;96429.25;;;17.62;50.29
81547;BME280;71078;48.358;10.960;2023-09-07T05:47:07;96426.31;;;17.72;50.43
81547;BME280;71078;48.358;10.960;2023-09-07T05:49:28;96440.81;;;17.87;50.42
81547;BME280;71078;48.358;10.960;2023-09-07T05:51:49;96435.09;;;17.96;50.02
81547;BME280;71078;48.358;10.960;2023-09-07T05:54:09;96424.91;;;17.87;49.69
81547;BME280;71078;48.358;10.960;2023-09-07T05:56:30;96437.88;;;17.96;50.36
81547;BME280;71078;48.358;10.960;2023-09-07T05:58:53;96447.75;;;17.97;50.48
81547;BME280;71078;48.358;10.960;2023-09-07T06:01:14;96446.53;;;18.03;50.73
81547;BME280;71078;48.358;10.960;2023-09-07T06:03:34;96446.38;;;18.13;50.80
81547;BME280;71078;48.358;10.960;2023-09-07T06:05:56;96439.75;;;18.36;50.96
81547;BME280;71078;48.358;10.960;2023-09-07T06:08:17;96436.63;;;18.60;50.02
81547;BME280;71078;48.358;10.960;2023-09-07T06:10:37;96431.91;;;18.72;50.08
81547;BME280;71078;48.358;10.960;2023-09-07T06:12:58;96438.03;;;18.81;49.89
81547;BME280;71078;48.358;10.960;2023-09-07T06:15:22;96433.94;;;18.77;50.19
81547;BME280;71078;48.358;10.960;2023-09-07T06:17:43;96426.34;;;18.72;50.61
81547;BME280;71078;48.358;10.960;2023-09-07T06:20:04;96427.34;;;18.74;50.52
81547;BME280;71078;48.358;10.960;2023-09-07T06:22:26;96434.22;;;18.79;50.80
81547;BME280;71078;48.358;10.960;2023-09-07T06:24:46;96434.47;;;18.81;50.75
81547;BME280;71078;48.358;10.960;2023-09-07T06:27:07;96437.06;;;18.90;50.52
81547;BME280;71078;48.358;10.960;2023-09-07T06:29:27;96430.25;;;18.96;50.64
81547;BME280;71078;48.358;10.960;2023-09-07T06:31:48;96436.97;;;19.16;50.69
81547;BME280;71078;48.358;10.960;2023-09-07T06:34:10;96432.47;;;19.35;50.41
81547;BME280;71078;48.358;10.960;2023-09-07T06:36:30;96429.94;;;19.32;50.20
81547;BME280;71078;48.358;10.960;2023-09-07T06:39:06;96432.53;;;19.52;50.00
81547;BME280;71078;48.358;10.960;2023-09-07T06:41:27;96437.59;;;19.48;50.04
81547;BME280;71078;48.358;10.960;2023-09-07T06:43:48;96437.97;;;19.13;50.49
81547;BME280;71078;48.358;10.960;2023-09-07T06:46:09;96436.63;;;19.68;49.73
81547;BME280;71078;48.358;10.960;2023-09-07T06:48:30;96434.56;;;19.51;50.04
81547;BME280;71078;48.358;10.960;2023-09-07T06:50:51;96435.44;;;19.97;48.65
81547;BME280;71078;48.358;10.960;2023-09-07T06:53:12;96439.75;;;20.14;48.96
81547;BME280;71078;48.358;10.960;2023-09-07T06:55:32;96444.81;;;19.93;49.06
81547;BME280;71078;48.358;10.960;2023-09-07T06:57:53;96442.78;;;20.27;48.67
81547;BME280;71078;48.358;10.960;2023-09-07T07:00:14;96444.06;;;20.26;48.62
81547;BME280;71078;48.358;10.960;2023-09-07T07:02:35;96453.69;;;19.92;49.02
81547;BME280;71078;48.358;10.960;2023-09-07T07:07:17;96452.19;;;20.30;47.62
81547;BME280;71078;48.358;10.960;2023-09-07T07:09:38;96437.97;;;20.17;48.82
81547;BME280;71078;48.358;10.960;2023-09-07T07:11:59;96444.06;;;20.66;47.74
81547;BME280;71078;48.358;10.960;2023-09-07T07:14:23;96441.69;;;20.98;47.41
81547;BME280;71078;48.358;10.960;2023-09-07T07:16:44;96442.81;;;20.55;47.62
81547;BME280;71078;48.358;10.960;2023-09-07T07:19:05;96441.72;;;20.86;47.01
81547;BME280;71078;48.358;10.960;2023-09-07T07:21:26;96458.66;;;21.16;46.47
81547;BME280;71078;48.358;10.960;2023-09-07T07:23:46;96462.69;;;21.32;46.15
81547;BME280;71078;48.358;10.960;2023-09-07T07:26:07;96468.22;;;21.49;46.01
81547;BME280;71078;48.358;10.960;2023-09-07T07:28:29;96457.00;;;21.54;45.89
81547;BME280;71078;48.358;10.960;2023-09-07T07:30:50;96458.59;;;21.39;46.58
81547;BME280;71078;48.358;10.960;2023-09-07T07:33:12;96459.28;;;21.56;45.97
81547;BME280;71078;48.358;10.960;2023-09-07T07:35:34;96459.94;;;21.15;46.58
81547;BME280;71078;48.358;10.960;2023-09-07T07:37:58;96457.25;;;21.57;46.40
81547;BME280;71078;48.358;10.960;2023-09-07T07:40:19;96455.56;;;21.83;45.84
81547;BME280;71078;48.358;10.960;2023-09-07T07:42:39;96457.88;;;21.79;45.40
81547;BME280;71078;48.358;10.960;2023-09-07T07:45:00;96457.28;;;21.98;45.19
81547;BME280;71078;48.358;10.960;2023-09-07T07:47:21;96456.06;;;22.29;44.96
81547;BME280;71078;48.358;10.960;2023-09-07T07:49:41;96455.16;;;22.75;44.35
81547;BME280;71078;48.358;10.960;2023-09-07T07:52:02;96462.94;;;22.88;44.01
81547;BME280;71078;48.358;10.960;2023-09-07T07:54:23;96455.41;;;22.77;43.12
81547;BME280;71078;48.358;10.960;2023-09-07T07:56:45;96460.44;;;23.27;42.92
81547;BME280;71078;48.358;10.960;2023-09-07T07:59:06;96457.59;;;23.33;42.85
81547;BME280;71078;48.358;10.960;2023-09-07T08:01:27;96470.63;;;23.06;42.88
81547;BME280;71078;48.358;10.960;2023-09-07T08:03:50;96463.59;;;22.99;42.83
81547;BME280;71078;48.358;10.960;2023-09-07T08:06:11;96472.56;;;22.62;43.79
81547;BME280;71078;48.358;10.960;2023-09-07T08:08:31;96464.34;;;22.75;43.34
81547;BME280;71078;48.358;10.960;2023-09-07T08:10:52;96469.03;;;23.10;43.74
81547;BME280;71078;48.358;10.960;2023-09-07T08:13:13;96467.38;;;23.45;42.72
81547;BME280;71078;48.358;10.960;2023-09-07T08:15:34;96465.88;;;23.44;42.63
81547;BME280;71078;48.358;10.960;2023-09-07T08:17:55;96465.75;;;22.88;43.85
81547;BME280;71078;48.358;10.960;2023-09-07T08:20:17;96466.50;;;23.31;43.37
81547;BME280;71078;48.358;10.960;2023-09-07T08:22:38;96466.81;;;23.28;43.27
81547;BME280;71078;48.358;10.960;2023-09-07T08:25:01;96463.44;;;23.35;43.23
81547;BME280;71078;48.358;10.960;2023-09-07T08:27:22;96452.53;;;23.88;42.41
81547;BME280;71078;48.358;10.960;2023-09-07T08:29:42;96450.09;;;24.16;41.70
81547;BME280;71078;48.358;10.960;2023-09-07T08:32:07;96440.28;;;24.55;41.04
81547;BME280;71078;48.358;10.960;2023-09-07T08:34:29;96457.31;;;24.76;40.36
81547;BME280;71078;48.358;10.960;2023-09-07T08:36:49;96458.22;;;25.10;40.10
81547;BME280;71078;48.358;10.960;2023-09-07T08:39:13;96450.66;;;25.31;39.73
81547;BME280;71078;48.358;10.960;2023-09-07T08:41:37;96452.06;;;25.38;39.66
81547;BME280;71078;48.358;10.960;2023-09-07T08:44:20;96456.28;;;25.45;39.39
81547;BME280;71078;48.358;10.960;2023-09-07T08:46:43;96451.28;;;25.51;39.50
81547;BME280;71078;48.358;10.960;2023-09-07T08:49:04;96450.75;;;25.13;39.84
81547;BME280;71078;48.358;10.960;2023-09-07T08:51:25;96449.38;;;25.32;40.02
81547;BME280;71078;48.358;10.960;2023-09-07T08:53:48;96440.69;;;25.44;39.86
81547;BME280;71078;48.358;10.960;2023-09-07T08:56:11;96451.31;;;25.37;39.94
81547;BME280;71078;48.358;10.960;2023-09-07T08:58:32;96445.56;;;25.56;39.88
81547;BME280;71078;48.358;10.960;2023-09-07T09:00:53;96449.50;;;25.87;39.29
81547;BME280;71078;48.358;10.960;2023-09-07T09:03:21;96445.16;;;25.99;39.18
81547;BME280;71078;48.358;10.960;2023-09-07T09:05:44;96441.81;;;26.22;38.63
81547;BME280;71078;48.358;10.960;2023-09-07T09:08:05;96433.28;;;26.35;38.23
81547;BME280;71078;48.358;10.960;2023-09-07T09:10:29;96438.16;;;25.66;38.43
81547;BME280;71078;48.358;10.960;2023-09-07T09:12:50;96439.94;;;25.56;39.35
81547;BME280;71078;48.358;10.960;2023-09-07T09:15:11;96442.31;;;24.99;39.91
81547;BME280;71078;48.358;10.960;2023-09-07T09:17:32;96441.34;;;25.10;39.67
81547;BME280;71078;48.358;10.960;2023-09-07T09:19:53;96444.28;;;25.31;39.52
81547;BME280;71078;48.358;10.960;2023-09-07T09:22:13;96439.19;;;25.29;39.87
81547;BME280;71078;48.358;10.960;2023-09-07T09:24:35;96449.69;;;25.29;39.70
81547;BME280;71078;48.358;10.960;2023-09-07T09:26:55;96453.50;;;25.92;39.33
81547;BME280;71078;48.358;10.960;2023-09-07T09:29:21;96441.50;;;26.46;38.24
81547;BME280;71078;48.358;10.960;2023-09-07T09:31:43;96449.59;;;26.99;37.24
81547;BME280;71078;48.358;10.960;2023-09-07T09:34:04;96450.28;;;27.13;37.14
81547;BME280;71078;48.358;10.960;2023-09-07T09:36:33;96443.91;;;27.12;37.29
81547;BME280;71078;48.358;10.960;2023-09-07T09:38:53;96446.25;;;26.17;37.74
81547;BME280;71078;48.358;10.960;2023-09-07T09:41:15;96441.75;;;26.35;38.48
81547;BME280;71078;48.358;10.960;2023-09-07T09:43:37;96437.88;;;26.04;38.40
81547;BME280;71078;48.358;10.960;2023-09-07T09:45:59;96444.25;;;25.57;38.84
81547;BME280;71078;48.358;10.960;2023-09-07T09:48:20;96444.28;;;26.25;39.11
81547;BME280;71078;48.358;10.960;2023-09-07T09:50:43;96428.50;;;26.64;38.42
81547;BME280;71078;48.358;10.960;2023-09-07T09:53:07;96439.63;;;25.33;38.96
81547;BME280;71078;48.358;10.960;2023-09-07T09:55:29;96425.66;;;25.54;39.53
81547;BME280;71078;48.358;10.960;2023-09-07T09:57:52;96427.63;;;25.33;40.82
81547;BME280;71078;48.358;10.960;2023-09-07T10:00:13;96431.16;;;25.60;40.12
81547;BME280;71078;48.358;10.960;2023-09-07T10:02:40;96418.09;;;26.38;39.18
81547;BME280;71078;48.358;10.960;2023-09-07T10:05:01;96426.44;;;26.93;37.89
81547;BME280;71078;48.358;10.960;2023-09-07T10:07:44;96422.81;;;26.85;37.73
81547;BME280;71078;48.358;10.960;2023-09-07T10:10:09;96416.59;;;27.07;37.19
81547;BME280;71078;48.358;10.960;2023-09-07T10:12:30;96416.44;;;25.54;39.14
81547;BME280;71078;48.358;10.960;2023-09-07T10:14:50;96415.72;;;26.42;38.75
81547;BME280;71078;48.358;10.960;2023-09-07T10:17:22;96415.63;;;26.34;38.46
81547;BME280;71078;48.358;10.960;2023-09-07T10:19:42;96412.28;;;26.36;38.26
81547;BME280;71078;48.358;10.960;2023-09-07T10:22:21;96414.88;;;25.79;39.47
81547;BME280;71078;48.358;10.960;2023-09-07T10:24:41;96408.16;;;26.37;38.62
81547;BME280;71078;48.358;10.960;2023-09-07T10:27:07;96418.44;;;26.76;38.61
81547;BME280;71078;48.358;10.960;2023-09-07T10:29:28;96408.31;;;26.52;38.03
81547;BME280;71078;48.358;10.960;2023-09-07T10:31:53;96409.44;;;26.15;38.51
81547;BME280;71078;48.358;10.960;2023-09-07T10:34:14;96408.50;;;26.54;38.99
81547;BME280;71078;48.358;10.960;2023-09-07T10:36:35;96418.25;;;27.31;37.27
81547;BME280;71078;48.358;10.960;2023-09-07T10:38:57;96404.72;;;27.01;36.82
81547;BME280;71078;48.358;10.960;2023-09-07T10:41:17;96404.22;;;26.61;36.93
81547;BME280;71078;48.358;10.960;2023-09-07T10:43:55;96407.00;;;27.03;37.54
81547;BME280;71078;48.358;10.960;2023-09-07T10:46:20;96403.19;;;27.00;37.46
81547;BME280;71078;48.358;10.960;2023-09-07T10:48:41;96406.44;;;26.34;38.25
81547;BME280;71078;48.358;10.960;2023-09-07T10:51:02;96408.75;;;27.57;36.93
81547;BME280;71078;48.358;10.960;2023-09-07T10:53:27;96412.50;;;26.59;37.06
81547;BME280;71078;48.358;10.960;2023-09-07T10:55:48;96421.38;;;27.56;37.11
81547;BME280;71078;48.358;10.960;2023-09-07T10:58:09;96410.97;;;26.16;38.03
81547;BME280;71078;48.358;10.960;2023-09-07T11:00:30;96397.94;;;26.47;38.39
81547;BME280;71078;48.358;10.960;2023-09-07T11:02:51;96412.19;;;27.27;36.87
81547;BME280;71078;48.358;10.960;2023-09-07T11:05:12;96408.13;;;27.43;37.67
81547;BME280;71078;48.358;10.960;2023-09-07T11:07:34;96404.97;;;28.06;36.01
81547;BME280;71078;48.358;10.960;2023-09-07T11:09:55;96397.25;;;27.99;35.52
81547;BME280;71078;48.358;10.960;2023-09-07T11:12:15;96404.78;;;28.04;35.31
81547;BME280;71078;48.358;10.960;2023-09-07T11:14:38;96406.34;;;28.35;34.48
81547;BME280;71078;48.358;10.960;2023-09-07T11:17:00;96395.69;;;27.82;33.65
81547;BME280;71078;48.358;10.960;2023-09-07T11:19:22;96405.59;;;28.35;33.20
81547;BME280;71078;48.358;10.960;2023-09-07T11:21:43;96395.03;;;28.66;32.33
81547;BME280;71078;48.358;10.960;2023-09-07T11:24:05;96396.53;;;28.59;32.60
81547;BME280;71078;48.358;10.960;2023-09-07T11:26:25;96394.25;;;28.12;33.12
81547;BME280;71078;48.358;10.960;2023-09-07T11:28:47;96390.53;;;28.70;32.44
81547;BME280;71078;48.358;10.960;2023-09-07T11:31:08;96388.06;;;28.67;32.64
81547;BME280;71078;48.358;10.960;2023-09-07T11:33:32;96381.28;;;28.77;31.78
81547;BME280;71078;48.358;10.960;2023-09-07T11:35:54;96376.16;;;28.91;31.44
81547;BME280;71078;48.358;10.960;2023-09-07T11:38:18;96382.72;;;29.09;31.22
81547;BME280;71078;48.358;10.960;2023-09-07T11:40:39;96380.31;;;28.98;31.67
81547;BME280;71078;48.358;10.960;2023-09-07T11:43:00;96378.94;;;29.14;31.46
81547;BME280;71078;48.358;10.960;2023-09-07T11:45:20;96380.31;;;28.98;32.08
81547;BME280;71078;48.358;10.960;2023-09-07T11:47:41;96384.63;;;29.06;32.60
81547;BME280;71078;48.358;10.960;2023-09-07T11:50:02;96385.22;;;28.97;32.40
81547;BME280;71078;48.358;10.960;2023-09-07T11:52:23;96385.97;;;28.98;32.76
81547;BME280;71078;48.358;10.960;2023-09-07T11:54:44;96378.59;;;29.02;32.61
81547;BME280;71078;48.358;10.960;2023-09-07T11:57:04;96378.63;;;28.87;32.90
81547;BME280;71078;48.358;10.960;2023-09-07T11:59:25;96375.22;;;28.96;32.62
81547;BME280;71078;48.358;10.960;2023-09-07T12:01:46;96385.63;;;28.48;32.86
81547;BME280;71078;48.358;10.960;2023-09-07T12:04:06;96396.94;;;28.17;33.81
81547;BME280;71078;48.358;10.960;2023-09-07T12:06:27;96389.44;;;27.69;33.99
81547;BME280;71078;48.358;10.960;2023-09-07T12:09:05;96388.41;;;28.02;34.04
81547;BME280;71078;48.358;10.960;2023-09-07T12:11:27;96384.50;;;28.20;33.90
81547;BME280;71078;48.358;10.960;2023-09-07T12:13:47;96387.91;;;27.60;34.45
81547;BME280;71078;48.358;10.960;2023-09-07T12:16:08;96387.28;;;27.10;35.05
81547;BME280;71078;48.358;10.960;2023-09-07T12:18:29;96384.63;;;27.92;34.40
81547;BME280;71078;48.358;10.960;2023-09-07T12:20:51;96383.91;;;28.22;33.64
81547;BME280;71078;48.358;10.960;2023-09-07T12:23:11;96377.50;;;28.29;33.88